sensor_id;sensor_type;location;lat;lon;timestamp;P1;durP1;ratioP1;P2;durP2;ratioP2
36585;SDS011;22591;48.314;11.562;2022-08-11T00:00:39;3.95;;;2.70;;
36585;SDS011;22591;48.314;11.562;2022-08-11T00:03:09;2.95;;;2.70;;
36585;SDS011;22591;48.314;11.562;2022-08-11T00:05:44;2.72;;;2.22;;
36585;SDS011;22591;48.314;11.562;2022-08-11T00:08:25;3.47;;;2.65;;
36585;SDS011;22591;48.314;11.562;2022-08-11T00:11:03;2.97;;;2.40;;
36585;SDS011;22591;48.314;11.562;2022-08-11T00:13:34;3.10;;;2.50;;
36585;SDS011;22591;48.314;11.562;2022-08-11T00:16:03;2.63;;;2.47;;
36585;SDS011;22591;48.314;11.562;2022-08-11T00:18:39;2.85;;;2.38;;
36585;SDS011;22591;48.314;11.562;2022-08-11T00:21:07;4.85;;;3.13;;
36585;SDS011;22591;48.314;11.562;2022-08-11T00:23:38;2.92;;;2.60;;
36585;SDS011;22591;48.314;11.562;2022-08-11T00:26:10;2.75;;;2.60;;
36585;SDS011;22591;48.314;11.562;2022-08-11T00:28:38;2.80;;;2.60;;
36585;SDS011;22591;48.314;11.562;2022-08-11T00:31:07;4.70;;;2.58;;
36585;SDS011;22591;48.314;11.562;2022-08-11T00:33:38;2.50;;;2.30;;
36585;SDS011;22591;48.314;11.562;2022-08-11T00:36:07;2.75;;;2.55;;
36585;SDS011;22591;48.314;11.562;2022-08-11T00:38:35;2.97;;;2.78;;
36585;SDS011;22591;48.314;11.562;2022-08-11T00:43:48;2.75;;;2.55;;
36585;SDS011;22591;48.314;11.562;2022-08-11T00:52:28;2.90;;;2.70;;
36585;SDS011;22591;48.314;11.562;2022-08-11T01:01:09;5.07;;;2.63;;
36585;SDS011;22591;48.314;11.562;2022-08-11T01:34:57;4.97;;;2.90;;
36585;SDS011;22591;48.314;11.562;2022-08-11T01:46:35;3.20;;;3.00;;
36585;SDS011;22591;48.314;11.562;2022-08-11T01:49:41;4.45;;;3.05;;
36585;SDS011;22591;48.314;11.562;2022-08-11T01:54:50;2.95;;;2.70;;
36585;SDS011;22591;48.314;11.562;2022-08-11T02:00:13;3.67;;;3.35;;
36585;SDS011;22591;48.314;11.562;2022-08-11T02:11:04;4.25;;;2.95;;
36585;SDS011;22591;48.314;11.562;2022-08-11T02:17:12;3.42;;;2.95;;
36585;SDS011;22591;48.314;11.562;2022-08-11T02:20:00;3.33;;;2.97;;
36585;SDS011;22591;48.314;11.562;2022-08-11T02:23:03;4.25;;;3.25;;
36585;SDS011;22591;48.314;11.562;2022-08-11T02:42:29;5.57;;;3.38;;
36585;SDS011;22591;48.314;11.562;2022-08-11T02:44:59;3.78;;;3.55;;
36585;SDS011;22591;48.314;11.562;2022-08-11T02:53:19;3.70;;;3.47;;
36585;SDS011;22591;48.314;11.562;2022-08-11T02:56:08;4.78;;;3.80;;
36585;SDS011;22591;48.314;11.562;2022-08-11T03:02:00;4.13;;;3.72;;
36585;SDS011;22591;48.314;11.562;2022-08-11T03:04:54;3.90;;;3.65;;
36585;SDS011;22591;48.314;11.562;2022-08-11T03:07:35;5.82;;;3.63;;
36585;SDS011;22591;48.314;11.562;2022-08-11T03:10:17;5.10;;;4.25;;
36585;SDS011;22591;48.314;11.562;2022-08-11T03:21:45;4.85;;;3.85;;
36585;SDS011;22591;48.314;11.562;2022-08-11T03:24:17;4.57;;;4.13;;
36585;SDS011;22591;48.314;11.562;2022-08-11T03:27:02;5.18;;;4.10;;
36585;SDS011;22591;48.314;11.562;2022-08-11T03:30:00;5.35;;;4.18;;
36585;SDS011;22591;48.314;11.562;2022-08-11T03:32:39;5.05;;;3.80;;
36585;SDS011;22591;48.314;11.562;2022-08-11T03:38:01;6.03;;;3.88;;
36585;SDS011;22591;48.314;11.562;2022-08-11T03:40:38;4.28;;;3.90;;
36585;SDS011;22591;48.314;11.562;2022-08-11T03:46:51;4.18;;;3.88;;
36585;SDS011;22591;48.314;11.562;2022-08-11T03:49:23;7.25;;;4.28;;
36585;SDS011;22591;48.314;11.562;2022-08-11T04:09:05;6.45;;;3.50;;
36585;SDS011;22591;48.314;11.562;2022-08-11T04:20:42;4.75;;;4.35;;
36585;SDS011;22591;48.314;11.562;2022-08-11T04:32:41;3.95;;;3.65;;
36585;SDS011;22591;48.314;11.562;2022-08-11T04:35:18;5.43;;;4.00;;
36585;SDS011;22591;48.314;11.562;2022-08-11T04:43:55;3.88;;;3.63;;
36585;SDS011;22591;48.314;11.562;2022-08-11T05:02:18;3.72;;;3.40;;
36585;SDS011;22591;48.314;11.562;2022-08-11T05:11:02;3.65;;;3.20;;
36585;SDS011;22591;48.314;11.562;2022-08-11T05:13:44;3.83;;;3.55;;
36585;SDS011;22591;48.314;11.562;2022-08-11T05:16:46;4.63;;;3.55;;
36585;SDS011;22591;48.314;11.562;2022-08-11T05:19:34;3.80;;;3.47;;
36585;SDS011;22591;48.314;11.562;2022-08-11T05:22:31;5.95;;;4.05;;
36585;SDS011;22591;48.314;11.562;2022-08-11T05:25:21;3.75;;;3.13;;
36585;SDS011;22591;48.314;11.562;2022-08-11T05:28:12;5.80;;;3.78;;
36585;SDS011;22591;48.314;11.562;2022-08-11T05:31:06;5.40;;;3.63;;
36585;SDS011;22591;48.314;11.562;2022-08-11T05:33:56;4.63;;;3.28;;
36585;SDS011;22591;48.314;11.562;2022-08-11T05:36:47;3.90;;;3.70;;
36585;SDS011;22591;48.314;11.562;2022-08-11T05:39:17;4.68;;;3.67;;
36585;SDS011;22591;48.314;11.562;2022-08-11T05:42:05;4.47;;;3.20;;
36585;SDS011;22591;48.314;11.562;2022-08-11T05:44:52;3.45;;;3.13;;
36585;SDS011;22591;48.314;11.562;2022-08-11T05:47:40;4.03;;;3.40;;
36585;SDS011;22591;48.314;11.562;2022-08-11T05:50:25;3.65;;;3.35;;
36585;SDS011;22591;48.314;11.562;2022-08-11T05:53:11;4.68;;;3.45;;
36585;SDS011;22591;48.314;11.562;2022-08-11T05:55:57;3.40;;;3.10;;
36585;SDS011;22591;48.314;11.562;2022-08-11T05:58:48;5.38;;;3.28;;
36585;SDS011;22591;48.314;11.562;2022-08-11T06:01:25;3.70;;;3.33;;
36585;SDS011;22591;48.314;11.562;2022-08-11T06:03:56;4.00;;;3.65;;
36585;SDS011;22591;48.314;11.562;2022-08-11T06:06:38;3.47;;;3.08;;
36585;SDS011;22591;48.314;11.562;2022-08-11T06:10:05;3.88;;;3.40;;
36585;SDS011;22591;48.314;11.562;2022-08-11T06:14:49;4.30;;;3.90;;
36585;SDS011;22591;48.314;11.562;2022-08-11T06:17:21;3.70;;;3.42;;
36585;SDS011;22591;48.314;11.562;2022-08-11T06:19:49;3.20;;;3.00;;
36585;SDS011;22591;48.314;11.562;2022-08-11T06:22:18;3.50;;;3.30;;
36585;SDS011;22591;48.314;11.562;2022-08-11T06:25:18;3.67;;;3.30;;
36585;SDS011;22591;48.314;11.562;2022-08-11T06:27:38;4.13;;;3.80;;
36585;SDS011;22591;48.314;11.562;2022-08-11T06:30:06;4.00;;;3.00;;
36585;SDS011;22591;48.314;11.562;2022-08-11T06:35:06;3.95;;;3.60;;
36585;SDS011;22591;48.314;11.562;2022-08-11T06:40:45;4.25;;;3.17;;
36585;SDS011;22591;48.314;11.562;2022-08-11T06:46:28;3.80;;;3.50;;
36585;SDS011;22591;48.314;11.562;2022-08-11T06:48:55;4.03;;;3.15;;
36585;SDS011;22591;48.314;11.562;2022-08-11T06:51:21;3.40;;;3.10;;
36585;SDS011;22591;48.314;11.562;2022-08-11T06:53:52;3.28;;;2.95;;
36585;SDS011;22591;48.314;11.562;2022-08-11T06:56:30;4.32;;;2.95;;
36585;SDS011;22591;48.314;11.562;2022-08-11T06:59:18;3.50;;;3.20;;
36585;SDS011;22591;48.314;11.562;2022-08-11T07:02:06;5.85;;;3.05;;
36585;SDS011;22591;48.314;11.562;2022-08-11T07:04:47;3.03;;;2.72;;
36585;SDS011;22591;48.314;11.562;2022-08-11T07:13:35;3.40;;;3.15;;
36585;SDS011;22591;48.314;11.562;2022-08-11T07:16:27;2.97;;;2.78;;
36585;SDS011;22591;48.314;11.562;2022-08-11T07:18:56;5.68;;;3.30;;
36585;SDS011;22591;48.314;11.562;2022-08-11T07:21:49;3.92;;;3.22;;
36585;SDS011;22591;48.314;11.562;2022-08-11T07:24:45;3.05;;;2.75;;
36585;SDS011;22591;48.314;11.562;2022-08-11T07:30:26;8.02;;;3.08;;
36585;SDS011;22591;48.314;11.562;2022-08-11T07:32:53;3.83;;;3.10;;
36585;SDS011;22591;48.314;11.562;2022-08-11T07:35:23;4.68;;;2.53;;
36585;SDS011;22591;48.314;11.562;2022-08-11T07:37:56;2.90;;;2.70;;
36585;SDS011;22591;48.314;11.562;2022-08-11T07:40:26;2.78;;;2.45;;
36585;SDS011;22591;48.314;11.562;2022-08-11T07:42:52;4.72;;;2.67;;
36585;SDS011;22591;48.314;11.562;2022-08-11T07:45:21;2.97;;;2.67;;
36585;SDS011;22591;48.314;11.562;2022-08-11T07:48:07;4.72;;;2.40;;
36585;SDS011;22591;48.314;11.562;2022-08-11T07:50:52;2.60;;;2.40;;
36585;SDS011;22591;48.314;11.562;2022-08-11T07:53:38;4.15;;;2.63;;
36585;SDS011;22591;48.314;11.562;2022-08-11T07:56:04;3.63;;;2.83;;
36585;SDS011;22591;48.314;11.562;2022-08-11T07:58:31;3.65;;;2.65;;
36585;SDS011;22591;48.314;11.562;2022-08-11T08:01:22;2.97;;;2.67;;
36585;SDS011;22591;48.314;11.562;2022-08-11T08:04:08;5.82;;;3.00;;
36585;SDS011;22591;48.314;11.562;2022-08-11T08:06:54;3.47;;;2.20;;
36585;SDS011;22591;48.314;11.562;2022-08-11T08:09:39;2.67;;;2.47;;
36585;SDS011;22591;48.314;11.562;2022-08-11T08:12:26;2.58;;;2.38;;
36585;SDS011;22591;48.314;11.562;2022-08-11T08:15:11;4.55;;;2.45;;
36585;SDS011;22591;48.314;11.562;2022-08-11T08:17:57;4.18;;;2.55;;
36585;SDS011;22591;48.314;11.562;2022-08-11T08:20:26;4.35;;;2.55;;
36585;SDS011;22591;48.314;11.562;2022-08-11T08:22:58;3.45;;;2.13;;
36585;SDS011;22591;48.314;11.562;2022-08-11T08:25:26;2.30;;;2.20;;
36585;SDS011;22591;48.314;11.562;2022-08-11T08:27:54;3.17;;;2.03;;
36585;SDS011;22591;48.314;11.562;2022-08-11T08:30:21;4.30;;;2.33;;
36585;SDS011;22591;48.314;11.562;2022-08-11T08:33:07;2.60;;;2.40;;
36585;SDS011;22591;48.314;11.562;2022-08-11T08:35:34;5.05;;;2.40;;
36585;SDS011;22591;48.314;11.562;2022-08-11T08:38:01;9.68;;;8.77;;
36585;SDS011;22591;48.314;11.562;2022-08-11T08:40:27;2.58;;;2.30;;
36585;SDS011;22591;48.314;11.562;2022-08-11T08:43:03;4.75;;;2.53;;
36585;SDS011;22591;48.314;11.562;2022-08-11T08:45:34;2.85;;;2.40;;
36585;SDS011;22591;48.314;11.562;2022-08-11T08:48:03;2.75;;;2.17;;
36585;SDS011;22591;48.314;11.562;2022-08-11T08:50:36;3.70;;;2.55;;
36585;SDS011;22591;48.314;11.562;2022-08-11T08:53:27;2.85;;;2.00;;
36585;SDS011;22591;48.314;11.562;2022-08-11T08:55:58;3.55;;;2.60;;
36585;SDS011;22591;48.314;11.562;2022-08-11T08:58:25;3.80;;;2.35;;
36585;SDS011;22591;48.314;11.562;2022-08-11T09:00:52;3.95;;;2.30;;
36585;SDS011;22591;48.314;11.562;2022-08-11T09:03:20;2.25;;;2.13;;
36585;SDS011;22591;48.314;11.562;2022-08-11T09:05:47;3.33;;;2.45;;
36585;SDS011;22591;48.314;11.562;2022-08-11T09:08:13;2.10;;;1.90;;
36585;SDS011;22591;48.314;11.562;2022-08-11T09:10:43;4.57;;;2.30;;
36585;SDS011;22591;48.314;11.562;2022-08-11T09:13:11;2.55;;;2.35;;
36585;SDS011;22591;48.314;11.562;2022-08-11T09:15:39;2.20;;;2.10;;
36585;SDS011;22591;48.314;11.562;2022-08-11T09:18:05;3.35;;;2.60;;
36585;SDS011;22591;48.314;11.562;2022-08-11T09:20:34;2.35;;;2.22;;
36585;SDS011;22591;48.314;11.562;2022-08-11T09:23:03;5.63;;;2.33;;
36585;SDS011;22591;48.314;11.562;2022-08-11T09:25:51;2.42;;;2.08;;
36585;SDS011;22591;48.314;11.562;2022-08-11T09:28:38;2.17;;;2.08;;
36585;SDS011;22591;48.314;11.562;2022-08-11T09:31:06;2.33;;;2.13;;
36585;SDS011;22591;48.314;11.562;2022-08-11T09:33:34;2.58;;;2.30;;
36585;SDS011;22591;48.314;11.562;2022-08-11T09:36:01;2.58;;;2.38;;
36585;SDS011;22591;48.314;11.562;2022-08-11T09:38:47;2.38;;;2.22;;
36585;SDS011;22591;48.314;11.562;2022-08-11T09:41:33;2.25;;;2.10;;
36585;SDS011;22591;48.314;11.562;2022-08-11T09:44:00;2.63;;;1.88;;
36585;SDS011;22591;48.314;11.562;2022-08-11T09:46:44;1.92;;;1.80;;
36585;SDS011;22591;48.314;11.562;2022-08-11T09:49:10;4.15;;;2.20;;
36585;SDS011;22591;48.314;11.562;2022-08-11T09:51:36;2.15;;;2.05;;
36585;SDS011;22591;48.314;11.562;2022-08-11T09:54:03;2.22;;;2.03;;
36585;SDS011;22591;48.314;11.562;2022-08-11T09:56:32;2.42;;;1.70;;
36585;SDS011;22591;48.314;11.562;2022-08-11T09:59:17;2.40;;;2.20;;
36585;SDS011;22591;48.314;11.562;2022-08-11T10:01:46;4.95;;;2.42;;
36585;SDS011;22591;48.314;11.562;2022-08-11T10:04:22;2.10;;;1.90;;
36585;SDS011;22591;48.314;11.562;2022-08-11T10:06:55;5.53;;;2.50;;
36585;SDS011;22591;48.314;11.562;2022-08-11T10:09:37;3.50;;;2.05;;
36585;SDS011;22591;48.314;11.562;2022-08-11T10:12:22;2.20;;;2.00;;
36585;SDS011;22591;48.314;11.562;2022-08-11T10:14:54;4.50;;;2.30;;
36585;SDS011;22591;48.314;11.562;2022-08-11T10:17:42;2.85;;;2.05;;
36585;SDS011;22591;48.314;11.562;2022-08-11T10:20:31;3.85;;;1.77;;
36585;SDS011;22591;48.314;11.562;2022-08-11T10:22:58;2.35;;;1.83;;
36585;SDS011;22591;48.314;11.562;2022-08-11T10:25:45;2.13;;;1.92;;
36585;SDS011;22591;48.314;11.562;2022-08-11T10:28:30;1.90;;;1.80;;
36585;SDS011;22591;48.314;11.562;2022-08-11T10:30:57;3.05;;;2.17;;
36585;SDS011;22591;48.314;11.562;2022-08-11T10:33:42;4.35;;;1.85;;
36585;SDS011;22591;48.314;11.562;2022-08-11T10:36:25;3.05;;;1.88;;
36585;SDS011;22591;48.314;11.562;2022-08-11T10:38:52;4.00;;;2.30;;
36585;SDS011;22591;48.314;11.562;2022-08-11T10:41:20;3.42;;;1.88;;
36585;SDS011;22591;48.314;11.562;2022-08-11T10:44:05;5.03;;;1.77;;
36585;SDS011;22591;48.314;11.562;2022-08-11T10:46:33;2.10;;;1.92;;
36585;SDS011;22591;48.314;11.562;2022-08-11T10:49:31;2.20;;;1.90;;
36585;SDS011;22591;48.314;11.562;2022-08-11T10:51:57;2.80;;;1.92;;
36585;SDS011;22591;48.314;11.562;2022-08-11T10:54:45;2.63;;;1.60;;
36585;SDS011;22591;48.314;11.562;2022-08-11T10:57:30;2.85;;;2.03;;
36585;SDS011;22591;48.314;11.562;2022-08-11T11:00:15;2.15;;;1.95;;
36585;SDS011;22591;48.314;11.562;2022-08-11T11:02:42;4.85;;;1.83;;
36585;SDS011;22591;48.314;11.562;2022-08-11T11:05:21;1.48;;;1.38;;
36585;SDS011;22591;48.314;11.562;2022-08-11T11:10:55;2.05;;;1.95;;
36585;SDS011;22591;48.314;11.562;2022-08-11T11:13:22;1.85;;;1.75;;
36585;SDS011;22591;48.314;11.562;2022-08-11T11:16:08;2.58;;;1.88;;
36585;SDS011;22591;48.314;11.562;2022-08-11T11:18:53;3.72;;;2.25;;
36585;SDS011;22591;48.314;11.562;2022-08-11T11:21:21;2.28;;;2.17;;
36585;SDS011;22591;48.314;11.562;2022-08-11T11:23:52;5.68;;;1.80;;
36585;SDS011;22591;48.314;11.562;2022-08-11T11:35:16;2.60;;;1.75;;
36585;SDS011;22591;48.314;11.562;2022-08-11T11:38:04;1.95;;;1.70;;
36585;SDS011;22591;48.314;11.562;2022-08-11T11:40:33;2.05;;;1.80;;
36585;SDS011;22591;48.314;11.562;2022-08-11T11:43:01;5.18;;;1.63;;
36585;SDS011;22591;48.314;11.562;2022-08-11T11:45:27;2.08;;;1.83;;
36585;SDS011;22591;48.314;11.562;2022-08-11T11:47:54;2.60;;;2.20;;
36585;SDS011;22591;48.314;11.562;2022-08-11T11:50:23;2.28;;;1.77;;
36585;SDS011;22591;48.314;11.562;2022-08-11T11:52:51;2.65;;;1.85;;
36585;SDS011;22591;48.314;11.562;2022-08-11T11:55:19;8.63;;;2.13;;
36585;SDS011;22591;48.314;11.562;2022-08-11T11:57:47;3.38;;;1.75;;
36585;SDS011;22591;48.314;11.562;2022-08-11T12:00:31;2.22;;;1.70;;
36585;SDS011;22591;48.314;11.562;2022-08-11T12:03:31;2.30;;;1.65;;
36585;SDS011;22591;48.314;11.562;2022-08-11T12:05:59;1.80;;;1.70;;
36585;SDS011;22591;48.314;11.562;2022-08-11T12:08:25;2.08;;;1.70;;
36585;SDS011;22591;48.314;11.562;2022-08-11T12:13:38;1.95;;;1.77;;
36585;SDS011;22591;48.314;11.562;2022-08-11T12:16:06;3.10;;;1.67;;
36585;SDS011;22591;48.314;11.562;2022-08-11T12:18:34;1.60;;;1.50;;
36585;SDS011;22591;48.314;11.562;2022-08-11T12:21:01;3.45;;;1.77;;
36585;SDS011;22591;48.314;11.562;2022-08-11T12:23:28;1.67;;;1.58;;
36585;SDS011;22591;48.314;11.562;2022-08-11T12:26:15;5.47;;;1.60;;
36585;SDS011;22591;48.314;11.562;2022-08-11T12:29:01;1.42;;;1.33;;
36585;SDS011;22591;48.314;11.562;2022-08-11T12:31:29;1.95;;;1.75;;
36585;SDS011;22591;48.314;11.562;2022-08-11T12:34:02;2.13;;;1.92;;
36585;SDS011;22591;48.314;11.562;2022-08-11T12:36:30;2.13;;;2.03;;
36585;SDS011;22591;48.314;11.562;2022-08-11T12:38:59;1.75;;;1.65;;
36585;SDS011;22591;48.314;11.562;2022-08-11T12:41:27;3.53;;;1.90;;
36585;SDS011;22591;48.314;11.562;2022-08-11T12:44:13;1.92;;;1.83;;
36585;SDS011;22591;48.314;11.562;2022-08-11T12:47:06;2.00;;;1.90;;
36585;SDS011;22591;48.314;11.562;2022-08-11T12:49:34;2.60;;;1.90;;
36585;SDS011;22591;48.314;11.562;2022-08-11T12:52:24;3.05;;;1.55;;
36585;SDS011;22591;48.314;11.562;2022-08-11T12:55:10;2.17;;;1.63;;
36585;SDS011;22591;48.314;11.562;2022-08-11T12:57:58;1.90;;;1.77;;
36585;SDS011;22591;48.314;11.562;2022-08-11T13:00:41;2.13;;;1.73;;
36585;SDS011;22591;48.314;11.562;2022-08-11T13:03:28;2.15;;;1.92;;
36585;SDS011;22591;48.314;11.562;2022-08-11T13:06:16;3.72;;;2.00;;
36585;SDS011;22591;48.314;11.562;2022-08-11T13:08:43;2.58;;;1.55;;
36585;SDS011;22591;48.314;11.562;2022-08-11T13:11:10;1.70;;;1.60;;
36585;SDS011;22591;48.314;11.562;2022-08-11T13:13:55;1.80;;;1.58;;
36585;SDS011;22591;48.314;11.562;2022-08-11T13:16:21;4.25;;;2.03;;
36585;SDS011;22591;48.314;11.562;2022-08-11T13:19:21;1.58;;;1.48;;
36585;SDS011;22591;48.314;11.562;2022-08-11T13:21:48;1.23;;;1.20;;
36585;SDS011;22591;48.314;11.562;2022-08-11T13:24:15;1.52;;;1.42;;
36585;SDS011;22591;48.314;11.562;2022-08-11T13:26:42;3.22;;;1.88;;
36585;SDS011;22591;48.314;11.562;2022-08-11T13:29:09;2.80;;;1.58;;
36585;SDS011;22591;48.314;11.562;2022-08-11T13:31:36;1.95;;;1.83;;
36585;SDS011;22591;48.314;11.562;2022-08-11T13:34:02;4.45;;;1.67;;
36585;SDS011;22591;48.314;11.562;2022-08-11T13:36:32;0.98;;;0.98;;
36585;SDS011;22591;48.314;11.562;2022-08-11T13:38:59;1.35;;;1.30;;
36585;SDS011;22591;48.314;11.562;2022-08-11T13:41:26;2.17;;;1.40;;
36585;SDS011;22591;48.314;11.562;2022-08-11T13:44:03;3.63;;;1.50;;
36585;SDS011;22591;48.314;11.562;2022-08-11T13:46:33;1.55;;;1.45;;
36585;SDS011;22591;48.314;11.562;2022-08-11T13:48:59;1.70;;;1.60;;
36585;SDS011;22591;48.314;11.562;2022-08-11T13:51:25;1.25;;;1.23;;
36585;SDS011;22591;48.314;11.562;2022-08-11T13:54:10;1.67;;;1.33;;
36585;SDS011;22591;48.314;11.562;2022-08-11T13:56:43;3.42;;;1.48;;
36585;SDS011;22591;48.314;11.562;2022-08-11T13:59:12;1.80;;;1.70;;
36585;SDS011;22591;48.314;11.562;2022-08-11T14:01:50;4.15;;;1.80;;
36585;SDS011;22591;48.314;11.562;2022-08-11T14:04:21;2.83;;;1.67;;
36585;SDS011;22591;48.314;11.562;2022-08-11T14:06:51;5.25;;;1.92;;
36585;SDS011;22591;48.314;11.562;2022-08-11T14:09:22;1.77;;;1.55;;
36585;SDS011;22591;48.314;11.562;2022-08-11T14:11:51;1.70;;;1.60;;
36585;SDS011;22591;48.314;11.562;2022-08-11T14:14:39;2.05;;;1.92;;
36585;SDS011;22591;48.314;11.562;2022-08-11T14:17:07;3.78;;;1.88;;
36585;SDS011;22591;48.314;11.562;2022-08-11T14:19:40;3.05;;;1.63;;
36585;SDS011;22591;48.314;11.562;2022-08-11T14:22:08;1.95;;;1.80;;
36585;SDS011;22591;48.314;11.562;2022-08-11T14:24:40;1.70;;;1.50;;
36585;SDS011;22591;48.314;11.562;2022-08-11T14:27:10;3.10;;;1.92;;
36585;SDS011;22591;48.314;11.562;2022-08-11T14:29:37;2.38;;;1.88;;
36585;SDS011;22591;48.314;11.562;2022-08-11T14:32:06;3.13;;;1.88;;
36585;SDS011;22591;48.314;11.562;2022-08-11T14:34:34;2.22;;;1.85;;
36585;SDS011;22591;48.314;11.562;2022-08-11T14:37:04;2.35;;;1.80;;
36585;SDS011;22591;48.314;11.562;2022-08-11T14:39:37;5.68;;;1.90;;
36585;SDS011;22591;48.314;11.562;2022-08-11T14:42:16;2.40;;;1.92;;
36585;SDS011;22591;48.314;11.562;2022-08-11T14:45:06;2.60;;;1.80;;
36585;SDS011;22591;48.314;11.562;2022-08-11T14:47:53;4.40;;;1.70;;
36585;SDS011;22591;48.314;11.562;2022-08-11T14:50:25;2.30;;;1.88;;
36585;SDS011;22591;48.314;11.562;2022-08-11T14:52:54;7.43;;;2.00;;
36585;SDS011;22591;48.314;11.562;2022-08-11T14:55:22;3.38;;;1.95;;
36585;SDS011;22591;48.314;11.562;2022-08-11T14:58:08;1.95;;;1.77;;
36585;SDS011;22591;48.314;11.562;2022-08-11T15:00:35;4.55;;;1.90;;
36585;SDS011;22591;48.314;11.562;2022-08-11T15:03:02;2.67;;;1.58;;
36585;SDS011;22591;48.314;11.562;2022-08-11T15:08:39;2.75;;;1.70;;
36585;SDS011;22591;48.314;11.562;2022-08-11T15:11:24;3.05;;;1.65;;
36585;SDS011;22591;48.314;11.562;2022-08-11T15:14:13;1.70;;;1.60;;
36585;SDS011;22591;48.314;11.562;2022-08-11T15:16:59;2.38;;;1.65;;
36585;SDS011;22591;48.314;11.562;2022-08-11T15:19:32;3.90;;;2.17;;
36585;SDS011;22591;48.314;11.562;2022-08-11T15:21:59;2.47;;;1.77;;
36585;SDS011;22591;48.314;11.562;2022-08-11T15:24:44;1.83;;;1.65;;
36585;SDS011;22591;48.314;11.562;2022-08-11T15:27:11;3.70;;;2.05;;
36585;SDS011;22591;48.314;11.562;2022-08-11T15:29:59;3.13;;;1.90;;
36585;SDS011;22591;48.314;11.562;2022-08-11T15:32:45;1.70;;;1.60;;
36585;SDS011;22591;48.314;11.562;2022-08-11T15:35:31;2.17;;;1.63;;
36585;SDS011;22591;48.314;11.562;2022-08-11T15:38:19;1.50;;;1.40;;
36585;SDS011;22591;48.314;11.562;2022-08-11T15:40:46;1.27;;;1.27;;
36585;SDS011;22591;48.314;11.562;2022-08-11T15:43:34;2.65;;;1.75;;
36585;SDS011;22591;48.314;11.562;2022-08-11T15:46:28;1.73;;;1.63;;
36585;SDS011;22591;48.314;11.562;2022-08-11T15:51:42;3.58;;;2.00;;
36585;SDS011;22591;48.314;11.562;2022-08-11T15:54:13;4.28;;;1.67;;
36585;SDS011;22591;48.314;11.562;2022-08-11T15:56:45;2.70;;;1.50;;
36585;SDS011;22591;48.314;11.562;2022-08-11T15:59:14;1.58;;;1.50;;
36585;SDS011;22591;48.314;11.562;2022-08-11T16:01:59;2.55;;;1.45;;
36585;SDS011;22591;48.314;11.562;2022-08-11T16:04:36;4.63;;;1.58;;
36585;SDS011;22591;48.314;11.562;2022-08-11T16:07:07;2.63;;;1.88;;
36585;SDS011;22591;48.314;11.562;2022-08-11T16:09:42;1.77;;;1.67;;
36585;SDS011;22591;48.314;11.562;2022-08-11T16:12:10;2.08;;;1.88;;
36585;SDS011;22591;48.314;11.562;2022-08-11T16:14:44;2.10;;;1.90;;
36585;SDS011;22591;48.314;11.562;2022-08-11T16:17:33;3.33;;;1.63;;
36585;SDS011;22591;48.314;11.562;2022-08-11T16:20:02;1.45;;;1.23;;
36585;SDS011;22591;48.314;11.562;2022-08-11T16:22:31;2.08;;;1.50;;
36585;SDS011;22591;48.314;11.562;2022-08-11T16:25:09;1.55;;;1.45;;
36585;SDS011;22591;48.314;11.562;2022-08-11T16:27:40;2.70;;;1.55;;
36585;SDS011;22591;48.314;11.562;2022-08-11T16:30:09;1.50;;;1.40;;
36585;SDS011;22591;48.314;11.562;2022-08-11T16:32:36;2.05;;;1.45;;
36585;SDS011;22591;48.314;11.562;2022-08-11T16:35:05;3.35;;;1.50;;
36585;SDS011;22591;48.314;11.562;2022-08-11T16:37:57;2.05;;;1.30;;
36585;SDS011;22591;48.314;11.562;2022-08-11T16:40:43;2.03;;;1.42;;
36585;SDS011;22591;48.314;11.562;2022-08-11T16:43:12;1.60;;;1.50;;
36585;SDS011;22591;48.314;11.562;2022-08-11T16:45:59;1.55;;;1.45;;
36585;SDS011;22591;48.314;11.562;2022-08-11T16:48:47;3.97;;;1.52;;
36585;SDS011;22591;48.314;11.562;2022-08-11T16:51:13;1.40;;;1.30;;
36585;SDS011;22591;48.314;11.562;2022-08-11T16:53:40;5.38;;;1.45;;
36585;SDS011;22591;48.314;11.562;2022-08-11T16:56:08;1.98;;;1.40;;
36585;SDS011;22591;48.314;11.562;2022-08-11T16:58:38;1.48;;;1.30;;
36585;SDS011;22591;48.314;11.562;2022-08-11T17:01:24;3.05;;;1.25;;
36585;SDS011;22591;48.314;11.562;2022-08-11T17:03:56;1.75;;;1.50;;
36585;SDS011;22591;48.314;11.562;2022-08-11T17:09:27;1.33;;;1.23;;
36585;SDS011;22591;48.314;11.562;2022-08-11T17:12:14;2.05;;;1.27;;
36585;SDS011;22591;48.314;11.562;2022-08-11T17:15:00;2.65;;;1.30;;
36585;SDS011;22591;48.314;11.562;2022-08-11T17:17:50;2.22;;;1.55;;
36585;SDS011;22591;48.314;11.562;2022-08-11T17:20:17;3.70;;;1.55;;
36585;SDS011;22591;48.314;11.562;2022-08-11T17:22:43;1.40;;;1.30;;
36585;SDS011;22591;48.314;11.562;2022-08-11T17:25:27;1.50;;;1.00;;
36585;SDS011;22591;48.314;11.562;2022-08-11T17:27:56;1.70;;;1.60;;
36585;SDS011;22591;48.314;11.562;2022-08-11T17:30:24;1.33;;;1.30;;
36585;SDS011;22591;48.314;11.562;2022-08-11T17:33:11;3.95;;;1.15;;
36585;SDS011;22591;48.314;11.562;2022-08-11T17:35:58;1.80;;;1.70;;
36585;SDS011;22591;48.314;11.562;2022-08-11T17:38:25;5.53;;;1.83;;
36585;SDS011;22591;48.314;11.562;2022-08-11T17:40:53;3.33;;;1.08;;
36585;SDS011;22591;48.314;11.562;2022-08-11T17:43:41;1.35;;;1.25;;
36585;SDS011;22591;48.314;11.562;2022-08-11T17:46:27;2.15;;;1.35;;
36585;SDS011;22591;48.314;11.562;2022-08-11T17:49:12;1.15;;;1.15;;
36585;SDS011;22591;48.314;11.562;2022-08-11T17:51:44;1.70;;;1.60;;
36585;SDS011;22591;48.314;11.562;2022-08-11T17:54:30;1.70;;;1.60;;
36585;SDS011;22591;48.314;11.562;2022-08-11T17:57:17;6.03;;;1.50;;
36585;SDS011;22591;48.314;11.562;2022-08-11T18:00:03;1.60;;;1.50;;
36585;SDS011;22591;48.314;11.562;2022-08-11T18:05:18;1.83;;;1.73;;
36585;SDS011;22591;48.314;11.562;2022-08-11T18:07:48;1.92;;;1.30;;
36585;SDS011;22591;48.314;11.562;2022-08-11T18:10:35;6.63;;;1.77;;
36585;SDS011;22591;48.314;11.562;2022-08-11T18:13:21;2.97;;;1.33;;
36585;SDS011;22591;48.314;11.562;2022-08-11T18:16:07;1.52;;;1.42;;
36585;SDS011;22591;48.314;11.562;2022-08-11T18:18:52;3.05;;;1.42;;
36585;SDS011;22591;48.314;11.562;2022-08-11T18:21:37;10.43;;;1.80;;
36585;SDS011;22591;48.314;11.562;2022-08-11T18:24:24;4.68;;;1.40;;
36585;SDS011;22591;48.314;11.562;2022-08-11T18:27:12;3.65;;;1.60;;
36585;SDS011;22591;48.314;11.562;2022-08-11T18:29:59;3.30;;;1.42;;
36585;SDS011;22591;48.314;11.562;2022-08-11T18:32:46;3.10;;;1.60;;
36585;SDS011;22591;48.314;11.562;2022-08-11T18:35:32;4.68;;;1.73;;
36585;SDS011;22591;48.314;11.562;2022-08-11T18:38:19;1.40;;;1.30;;
36585;SDS011;22591;48.314;11.562;2022-08-11T18:41:05;1.60;;;1.50;;
36585;SDS011;22591;48.314;11.562;2022-08-11T18:43:52;1.10;;;1.10;;
36585;SDS011;22591;48.314;11.562;2022-08-11T18:46:40;2.55;;;1.73;;
36585;SDS011;22591;48.314;11.562;2022-08-11T18:49:28;2.63;;;1.42;;
36585;SDS011;22591;48.314;11.562;2022-08-11T18:52:17;1.40;;;1.35;;
36585;SDS011;22591;48.314;11.562;2022-08-11T18:55:03;1.67;;;1.48;;
36585;SDS011;22591;48.314;11.562;2022-08-11T18:57:52;1.45;;;1.30;;
36585;SDS011;22591;48.314;11.562;2022-08-11T19:00:37;1.70;;;1.60;;
36585;SDS011;22591;48.314;11.562;2022-08-11T19:03:24;1.65;;;1.55;;
36585;SDS011;22591;48.314;11.562;2022-08-11T19:06:11;3.42;;;1.50;;
36585;SDS011;22591;48.314;11.562;2022-08-11T19:08:57;5.43;;;1.65;;
36585;SDS011;22591;48.314;11.562;2022-08-11T19:11:44;3.22;;;1.50;;
36585;SDS011;22591;48.314;11.562;2022-08-11T19:14:30;1.60;;;1.50;;